createdAt,value
2019-04-28T00:01:56.977Z,82.40
2019-04-28T00:04:23.729Z,80.20
2019-04-28T00:06:53.319Z,79.70
2019-04-28T00:09:21.265Z,82.90
2019-04-28T00:11:52.336Z,84.90
2019-04-28T00:14:22.750Z,83.80
2019-04-28T00:16:52.690Z,83.70
2019-04-28T00:19:20.889Z,84.00
2019-04-28T00:21:51.784Z,86.30
2019-04-28T00:24:21.093Z,88.10
2019-04-28T00:26:48.894Z,87.30
2019-04-28T00:29:18.594Z,84.40
2019-04-28T00:31:48.936Z,83.40
2019-04-28T00:34:15.490Z,82.80
2019-04-28T00:36:45.666Z,84.70
2019-04-28T00:39:13.660Z,85.00
2019-04-28T00:41:42.322Z,85.20
2019-04-28T00:44:11.912Z,85.00
2019-04-28T00:46:38.773Z,85.00
2019-04-28T00:49:12.255Z,86.30
2019-04-28T00:51:42.603Z,88.50
2019-04-28T00:54:12.149Z,87.80
2019-04-28T00:56:38.991Z,90.70
2019-04-28T00:59:06.657Z,90.40
2019-04-28T01:01:33.282Z,88.40
2019-04-28T01:04:02.066Z,89.20
2019-04-28T01:06:32.136Z,86.30
2019-04-28T01:09:01.408Z,86.10
2019-04-28T01:11:31.226Z,85.20
2019-04-28T01:13:59.319Z,85.80
2019-04-28T01:16:25.939Z,82.60
2019-04-28T01:18:54.034Z,83.20
2019-04-28T01:21:21.354Z,82.60
2019-04-28T01:23:50.086Z,82.40
2019-04-28T01:26:16.529Z,82.00
2019-04-28T01:28:43.403Z,83.30
2019-04-28T01:31:10.946Z,84.30
2019-04-28T01:33:41.181Z,83.90
2019-04-28T01:36:11.407Z,83.80
2019-04-28T01:38:42.061Z,82.60
2019-04-28T01:41:11.701Z,85.80
2019-04-28T01:43:43.574Z,84.70
2019-04-28T01:46:10.465Z,85.50
2019-04-28T01:48:39.756Z,89.70
2019-04-28T01:51:06.393Z,90.50
2019-04-28T01:53:34.021Z,88.20
2019-04-28T01:56:02.058Z,88.40
2019-04-28T01:58:30.823Z,86.60
2019-04-28T02:01:01.209Z,84.70
2019-04-28T02:03:28.015Z,85.20
2019-04-28T02:06:00.078Z,82.40
2019-04-28T02:08:25.255Z,83.90
2019-04-28T02:10:52.859Z,83.20
2019-04-28T02:13:22.985Z,82.50
2019-04-28T02:15:53.190Z,84.20
2019-04-28T02:18:21.116Z,84.00
2019-04-28T02:20:49.351Z,85.10
2019-04-28T02:23:16.411Z,85.10
2019-04-28T02:25:43.026Z,85.10
2019-04-28T02:28:12.048Z,83.10
2019-04-28T02:30:47.796Z,81.80
2019-04-28T02:33:13.545Z,82.00
2019-04-28T02:35:44.876Z,81.90
2019-04-28T02:38:12.595Z,82.80
2019-04-28T02:40:40.541Z,81.60
2019-04-28T02:43:07.789Z,81.80
2019-04-28T02:45:34.431Z,82.80
2019-04-28T02:48:03.856Z,83.70
2019-04-28T02:50:34.528Z,83.80
2019-04-28T02:53:01.853Z,83.60
2019-04-28T02:55:31.793Z,83.50
2019-04-28T03:01:02.709Z,83.80
2019-04-28T03:03:21.114Z,84.10
2019-04-28T03:05:51.015Z,83.60
2019-04-28T03:08:23.153Z,84.50
2019-04-28T03:10:50.852Z,84.80
2019-04-28T03:13:20.664Z,83.80
2019-04-28T03:15:51.267Z,83.80
2019-04-28T03:18:17.313Z,81.90
2019-04-28T03:20:44.910Z,82.90
2019-04-28T03:23:12.610Z,83.30
2019-04-28T03:25:41.343Z,83.50
2019-04-28T03:28:11.998Z,82.70
2019-04-28T03:30:43.840Z,83.00
2019-04-28T03:33:18.103Z,85.10
2019-04-28T03:35:43.851Z,84.50
2019-04-28T03:38:10.864Z,82.80
2019-04-28T03:40:41.593Z,83.50
2019-04-28T03:43:14.324Z,83.80
2019-04-28T03:45:41.024Z,84.30
2019-04-28T03:48:07.984Z,84.40
2019-04-28T03:50:34.568Z,85.10
2019-04-28T03:53:05.226Z,84.30
2019-04-28T03:55:34.931Z,84.20
2019-04-28T03:58:01.705Z,84.30
2019-04-28T04:00:31.162Z,84.10
2019-04-28T04:03:00.786Z,84.30
2019-04-28T04:05:30.615Z,84.80
2019-04-28T04:07:57.482Z,85.00
2019-04-28T04:10:24.815Z,85.60
2019-04-28T04:12:51.724Z,85.70
2019-04-28T04:15:21.370Z,84.50
2019-04-28T04:17:50.941Z,83.80
2019-04-28T04:20:16.100Z,83.70
2019-04-28T04:22:44.428Z,84.40
2019-04-28T04:25:13.520Z,84.50
2019-04-28T04:27:42.331Z,83.30
2019-04-28T04:30:37.735Z,83.40
2019-04-28T04:32:56.967Z,81.90
2019-04-28T04:35:24.651Z,82.10
2019-04-28T04:41:03.136Z,79.10
2019-04-28T04:43:21.063Z,78.00
2019-04-28T04:45:50.118Z,77.90
2019-04-28T04:48:16.949Z,75.90
2019-04-28T04:50:43.528Z,73.60
2019-04-28T04:53:11.035Z,71.80
2019-04-28T04:55:40.567Z,72.60
2019-04-28T04:58:10.713Z,72.80
2019-04-28T05:00:40.454Z,72.70
2019-04-28T05:03:07.600Z,71.90
2019-04-28T05:05:36.300Z,71.20
2019-04-28T05:08:03.194Z,69.50
2019-04-28T05:10:32.183Z,68.00
2019-04-28T05:13:02.389Z,68.20
2019-04-28T05:15:30.403Z,69.20
2019-04-28T05:18:00.869Z,70.40
2019-04-28T05:20:27.462Z,67.50
2019-04-28T05:22:56.670Z,65.90
2019-04-28T05:25:28.487Z,67.70
2019-04-28T05:27:54.519Z,62.60
2019-04-28T05:30:21.715Z,60.50
2019-04-28T05:32:56.056Z,63.30
2019-04-28T05:35:23.111Z,61.60
2019-04-28T05:37:49.522Z,61.70
2019-04-28T05:40:18.204Z,60.60
2019-04-28T05:42:49.730Z,59.50
2019-04-28T05:45:17.638Z,59.90
2019-04-28T05:47:50.176Z,59.40
2019-04-28T05:50:19.663Z,56.30
2019-04-28T05:52:50.196Z,58.80
2019-04-28T05:55:15.580Z,56.40
2019-04-28T05:57:43.412Z,55.60
2019-04-28T06:00:11.239Z,55.60
2019-04-28T06:02:39.671Z,56.10
2019-04-28T06:05:10.075Z,55.10
2019-04-28T06:07:40.538Z,54.30
2019-04-28T06:10:10.145Z,53.10
2019-04-28T06:12:40.400Z,54.20
2019-04-28T06:15:11.753Z,54.10
2019-04-28T06:17:41.154Z,54.10
2019-04-28T06:20:07.844Z,53.60
2019-04-28T06:22:34.434Z,55.00
2019-04-28T06:25:01.460Z,53.50
2019-04-28T06:27:32.663Z,53.90
2019-04-28T06:30:05.375Z,54.30
2019-04-28T06:32:34.273Z,53.40
2019-04-28T06:35:03.189Z,54.00
2019-04-28T06:37:33.114Z,52.20
2019-04-28T06:40:08.809Z,53.80
2019-04-28T06:42:38.722Z,52.90
2019-04-28T06:45:05.396Z,53.50
2019-04-28T06:47:32.175Z,52.20
2019-04-28T06:50:07.372Z,52.30
2019-04-28T06:52:29.818Z,53.60
2019-04-28T06:54:56.684Z,52.60
2019-04-28T06:57:25.655Z,53.30
2019-04-28T06:59:57.777Z,52.40
2019-04-28T07:02:37.630Z,50.90
2019-04-28T07:05:02.035Z,51.10
2019-04-28T07:07:29.689Z,51.40
2019-04-28T07:12:59.976Z,51.10
2019-04-28T07:15:20.199Z,52.70
2019-04-28T07:17:48.117Z,51.70
2019-04-28T07:20:17.723Z,51.00
2019-04-28T07:22:52.397Z,50.80
2019-04-28T07:25:17.894Z,51.80
2019-04-28T07:27:51.733Z,53.10
2019-04-28T07:30:25.599Z,49.30
2019-04-28T07:32:56.290Z,50.60
2019-04-28T07:35:23.237Z,49.90
2019-04-28T07:37:49.922Z,51.30
2019-04-28T07:40:21.863Z,51.40
2019-04-28T07:42:51.890Z,51.90
2019-04-28T07:45:19.415Z,50.30
2019-04-28T07:47:48.122Z,49.00
2019-04-28T07:50:17.750Z,48.40
2019-04-28T07:52:44.718Z,49.30
2019-04-28T07:55:11.355Z,49.00
2019-04-28T07:57:38.129Z,49.70
2019-04-28T08:00:07.368Z,48.20
2019-04-28T08:02:35.229Z,48.40
2019-04-28T08:05:03.858Z,49.30
2019-04-28T08:07:30.577Z,49.50
2019-04-28T08:09:57.162Z,49.30
2019-04-28T08:12:24.036Z,49.70
2019-04-28T08:14:50.659Z,49.00
2019-04-28T08:17:17.638Z,48.70
2019-04-28T08:19:44.187Z,50.20
2019-04-28T08:22:10.803Z,49.50
2019-04-28T08:24:37.406Z,49.00
2019-04-28T08:27:04.095Z,50.50
2019-04-28T08:29:30.972Z,49.40
2019-04-28T08:31:57.604Z,49.20
2019-04-28T08:34:25.745Z,48.20
2019-04-28T08:36:52.354Z,48.60
2019-04-28T08:39:18.949Z,48.40
2019-04-28T08:41:47.233Z,48.90
2019-04-28T08:44:14.002Z,49.40
2019-04-28T08:46:40.848Z,48.20
2019-04-28T08:49:07.656Z,48.10
2019-04-28T08:51:37.155Z,48.80
2019-04-28T08:54:03.763Z,47.50
2019-04-28T08:56:32.430Z,49.00
2019-04-28T08:59:00.954Z,48.70
2019-04-28T09:01:27.635Z,48.50
2019-04-28T09:03:56.543Z,48.70
2019-04-28T09:06:23.358Z,48.70
2019-04-28T09:08:50.574Z,49.00
2019-04-28T09:11:20.665Z,49.10
2019-04-28T09:13:47.232Z,47.90
2019-04-28T09:16:14.030Z,46.90
2019-04-28T09:18:41.886Z,47.00
2019-04-28T09:21:10.532Z,46.30
2019-04-28T09:23:37.470Z,46.60
2019-04-28T09:26:08.040Z,45.90
2019-04-28T09:28:34.615Z,45.10
2019-04-28T09:31:01.239Z,46.70
2019-04-28T09:33:30.325Z,46.00
2019-04-28T09:35:59.849Z,45.80
2019-04-28T09:38:26.455Z,46.00
2019-04-28T09:40:53.026Z,46.20
2019-04-28T09:43:19.654Z,46.40
2019-04-28T09:45:46.528Z,46.30
2019-04-28T09:48:13.109Z,47.80
2019-04-28T09:50:42.227Z,46.50
2019-04-28T09:53:08.829Z,47.20
2019-04-28T09:55:38.260Z,47.00
2019-04-28T09:58:07.350Z,45.60
2019-04-28T10:00:34.407Z,45.20
2019-04-28T10:03:05.097Z,45.70
2019-04-28T10:05:31.987Z,46.00
2019-04-28T10:07:59.453Z,45.00
2019-04-28T10:10:28.842Z,44.80
2019-04-28T10:12:57.549Z,45.10
2019-04-28T10:15:24.885Z,46.00
2019-04-28T10:17:51.475Z,45.80
2019-04-28T10:20:18.126Z,44.70
2019-04-28T10:22:45.736Z,45.00
2019-04-28T10:25:14.735Z,44.70
2019-04-28T10:27:43.239Z,45.40
2019-04-28T10:30:11.922Z,45.50
2019-04-28T10:32:41.253Z,44.20
2019-04-28T10:35:09.904Z,44.90
2019-04-28T10:37:39.861Z,44.80
2019-04-28T10:40:06.474Z,45.10
2019-04-28T10:42:33.379Z,44.00
2019-04-28T10:45:00.019Z,45.80
2019-04-28T10:47:26.608Z,45.60
2019-04-28T10:49:53.213Z,43.80
2019-04-28T10:52:20.102Z,44.20
2019-04-28T10:54:46.968Z,45.00
2019-04-28T10:57:13.587Z,46.30
2019-04-28T10:59:40.180Z,45.40
2019-04-28T11:02:06.895Z,45.20
2019-04-28T11:04:33.505Z,43.00
2019-04-28T11:07:00.092Z,44.20
2019-04-28T11:09:30.682Z,43.70
2019-04-28T11:11:55.011Z,44.80
2019-04-28T11:14:21.601Z,45.20
2019-04-28T11:16:48.209Z,43.70
2019-04-28T11:19:14.951Z,44.30
2019-04-28T11:21:41.554Z,43.60
2019-04-28T11:24:08.148Z,43.40
2019-04-28T11:26:35.038Z,44.60
2019-04-28T11:29:01.927Z,44.60
2019-04-28T11:31:28.507Z,42.00
2019-04-28T11:33:55.119Z,43.60
2019-04-28T11:36:21.846Z,42.80
2019-04-28T11:38:48.699Z,42.90
2019-04-28T11:41:15.335Z,43.90
2019-04-28T11:43:43.161Z,42.90
2019-04-28T11:46:09.746Z,42.20
2019-04-28T11:48:36.416Z,43.00
2019-04-28T11:51:03.001Z,44.00
2019-04-28T11:53:29.592Z,42.60
2019-04-28T11:55:57.288Z,43.00
2019-04-28T11:58:23.870Z,43.60
2019-04-28T12:00:50.470Z,44.10
2019-04-28T12:03:17.742Z,43.80
2019-04-28T12:05:44.579Z,43.90
2019-04-28T12:08:14.079Z,44.00
2019-04-28T12:10:41.041Z,41.90
2019-04-28T12:13:07.966Z,42.90
2019-04-28T12:15:34.820Z,44.10
2019-04-28T12:18:01.783Z,43.10
2019-04-28T12:20:28.645Z,43.30
2019-04-28T12:22:55.234Z,44.80
2019-04-28T12:25:23.612Z,41.80
2019-04-28T12:27:52.507Z,44.00
2019-04-28T12:30:21.700Z,43.70
2019-04-28T12:32:48.087Z,44.40
2019-04-28T12:35:18.436Z,42.60
2019-04-28T12:37:43.340Z,43.60
2019-04-28T12:40:12.143Z,42.30
2019-04-28T12:42:39.980Z,42.40
2019-04-28T12:45:09.301Z,44.30
2019-04-28T12:47:40.218Z,42.80
2019-04-28T12:50:07.145Z,43.20
2019-04-28T12:52:34.036Z,44.50
2019-04-28T12:55:03.353Z,43.20
2019-04-28T12:57:31.495Z,42.90
2019-04-28T12:59:59.647Z,42.50
2019-04-28T13:02:28.838Z,43.70
2019-04-28T13:04:58.336Z,43.40
2019-04-28T13:07:25.189Z,44.00
2019-04-28T13:09:53.119Z,42.50
2019-04-28T13:12:22.526Z,41.30
2019-04-28T13:14:49.372Z,43.00
2019-04-28T13:17:24.317Z,41.40
2019-04-28T13:19:49.687Z,42.10
2019-04-28T13:22:16.608Z,43.10
2019-04-28T13:24:46.116Z,42.60
2019-04-28T13:27:12.911Z,45.20
2019-04-28T13:29:39.752Z,41.80
2019-04-28T13:32:07.638Z,42.50
2019-04-28T13:34:34.522Z,43.00
2019-04-28T13:37:02.593Z,43.40
2019-04-28T13:39:32.816Z,40.90
2019-04-28T13:42:01.986Z,41.50
2019-04-28T13:44:28.844Z,40.90
2019-04-28T13:46:59.758Z,41.60
2019-04-28T13:49:29.079Z,43.20
2019-04-28T13:51:55.161Z,43.20
2019-04-28T13:54:25.866Z,41.10
2019-04-28T13:56:53.819Z,40.50
2019-04-28T13:59:24.067Z,41.00
2019-04-28T14:01:50.941Z,41.40
2019-04-28T14:04:20.376Z,40.50
2019-04-28T14:06:49.191Z,40.10
2019-04-28T14:09:16.744Z,41.50
2019-04-28T14:11:44.953Z,40.60
2019-04-28T14:14:15.596Z,40.70
2019-04-28T14:16:46.258Z,39.80
2019-04-28T14:19:17.080Z,39.00
2019-04-28T14:21:43.952Z,43.20
2019-04-28T14:24:10.874Z,38.50
2019-04-28T14:26:40.338Z,38.00
2019-04-28T14:29:10.012Z,39.00
2019-04-28T14:31:43.861Z,39.40
2019-04-28T14:34:12.010Z,39.00
2019-04-28T14:36:45.462Z,39.40
2019-04-28T14:39:14.763Z,38.80
2019-04-28T14:41:41.881Z,40.10
2019-04-28T14:44:12.881Z,39.30
2019-04-28T14:46:40.080Z,38.30
2019-04-28T14:49:10.010Z,39.60
2019-04-28T14:51:41.240Z,39.40
2019-04-28T14:54:18.288Z,38.90
2019-04-28T14:56:44.657Z,39.50
2019-04-28T14:59:15.545Z,38.50
2019-04-28T15:01:43.567Z,39.80
2019-04-28T15:04:14.611Z,38.60
2019-04-28T15:06:55.124Z,39.30
2019-04-28T15:09:14.063Z,40.80
2019-04-28T15:11:40.936Z,39.40
2019-04-28T15:14:09.518Z,39.30
2019-04-28T15:16:38.242Z,39.30
2019-04-28T15:19:05.192Z,40.20
2019-04-28T15:21:32.049Z,38.60
2019-04-28T15:24:01.437Z,38.60
2019-04-28T15:26:28.614Z,39.30
2019-04-28T15:28:57.779Z,39.20
2019-04-28T15:31:26.025Z,39.80
2019-04-28T15:33:55.410Z,39.80
2019-04-28T15:36:24.545Z,40.90
2019-04-28T15:38:53.670Z,40.80
2019-04-28T15:41:24.093Z,39.10
2019-04-28T15:43:51.199Z,39.20
2019-04-28T15:46:20.475Z,40.20
2019-04-28T15:48:47.251Z,40.50
2019-04-28T15:51:16.514Z,38.90
2019-04-28T15:53:45.142Z,39.30
2019-04-28T15:56:14.986Z,40.70
2019-04-28T15:58:43.904Z,40.40
2019-04-28T16:01:12.938Z,41.10
2019-04-28T16:03:43.319Z,42.10
2019-04-28T16:06:13.012Z,41.80
2019-04-28T16:08:42.371Z,42.70
2019-04-28T16:11:10.298Z,41.80
2019-04-28T16:13:38.615Z,41.60
2019-04-28T16:16:08.731Z,39.60
2019-04-28T16:18:37.126Z,40.20
2019-04-28T16:21:04.000Z,39.90
2019-04-28T16:23:33.274Z,39.80
2019-04-28T16:26:00.136Z,39.70
2019-04-28T16:28:26.868Z,39.50
2019-04-28T16:30:57.678Z,40.20
2019-04-28T16:33:24.831Z,40.10
2019-04-28T16:35:51.562Z,39.70
2019-04-28T16:38:21.934Z,39.70
2019-04-28T16:40:48.548Z,39.60
2019-04-28T16:43:15.603Z,40.20
2019-04-28T16:45:42.982Z,39.80
2019-04-28T16:48:10.205Z,39.60
2019-04-28T16:50:37.118Z,40.00
2019-04-28T16:53:05.546Z,39.90
2019-04-28T16:55:34.691Z,39.90
2019-04-28T16:58:02.619Z,39.40
2019-04-28T17:00:33.430Z,39.60
2019-04-28T17:03:00.056Z,39.70
2019-04-28T17:05:28.643Z,39.70
2019-04-28T17:07:55.027Z,40.80
2019-04-28T17:10:22.212Z,40.70
2019-04-28T17:12:51.284Z,40.60
2019-04-28T17:15:19.552Z,39.80
2019-04-28T17:17:48.397Z,40.20
2019-04-28T17:20:14.990Z,40.10
2019-04-28T17:22:45.438Z,41.10
2019-04-28T17:25:17.480Z,40.20
2019-04-28T17:27:43.074Z,40.70
2019-04-28T17:30:09.769Z,39.90
2019-04-28T17:32:37.518Z,40.60
2019-04-28T17:35:12.560Z,41.10
2019-04-28T17:37:37.692Z,40.80
2019-04-28T17:40:04.807Z,40.60
2019-04-28T17:42:32.426Z,40.90
2019-04-28T17:45:02.044Z,40.60
2019-04-28T17:47:33.295Z,41.00
2019-04-28T17:50:00.879Z,41.20
2019-04-28T17:52:30.063Z,41.60
2019-04-28T17:54:56.749Z,41.10
2019-04-28T17:57:23.337Z,41.20
2019-04-28T17:59:55.819Z,41.30
2019-04-28T18:02:24.621Z,41.10
2019-04-28T18:04:53.244Z,41.40
2019-04-28T18:07:27.027Z,41.50
2019-04-28T18:09:53.706Z,42.50
2019-04-28T18:12:28.633Z,42.30
2019-04-28T18:14:58.453Z,41.40
2019-04-28T18:17:26.448Z,41.10
2019-04-28T18:19:53.075Z,41.40
2019-04-28T18:22:22.589Z,41.40
2019-04-28T18:24:49.888Z,41.50
2019-04-28T18:27:16.510Z,41.60
2019-04-28T18:29:43.123Z,41.10
2019-04-28T18:32:13.789Z,41.40
2019-04-28T18:34:42.234Z,41.30
2019-04-28T18:37:12.277Z,41.50
2019-04-28T18:39:44.475Z,42.20
2019-04-28T18:42:11.281Z,41.70
2019-04-28T18:44:40.178Z,41.80
2019-04-28T18:47:06.484Z,41.60
2019-04-28T18:49:33.269Z,42.10
2019-04-28T18:51:59.973Z,41.30
2019-04-28T18:54:27.881Z,41.20
2019-04-28T18:56:54.468Z,42.10
2019-04-28T18:59:24.406Z,42.50
2019-04-28T19:01:52.149Z,41.80
2019-04-28T19:04:19.839Z,41.50
2019-04-28T19:06:46.914Z,41.70
2019-04-28T19:09:14.551Z,42.20
2019-04-28T19:11:41.450Z,41.70
2019-04-28T19:14:08.474Z,41.80
2019-04-28T19:16:35.984Z,42.10
2019-04-28T19:19:03.872Z,41.40
2019-04-28T19:21:31.449Z,41.90
2019-04-28T19:23:58.087Z,42.20
2019-04-28T19:26:25.690Z,42.00
2019-04-28T19:28:55.308Z,41.60
2019-04-28T19:31:32.957Z,41.60
2019-04-28T19:34:00.497Z,41.00
2019-04-28T19:36:28.370Z,41.90
2019-04-28T19:39:02.968Z,41.80
2019-04-28T19:41:23.589Z,41.90
2019-04-28T19:43:50.259Z,41.70
2019-04-28T19:46:16.816Z,41.90
2019-04-28T19:48:43.685Z,41.80
2019-04-28T19:51:10.317Z,41.80
2019-04-28T19:53:37.173Z,41.10
2019-04-28T19:56:04.477Z,41.80
2019-04-28T19:58:31.104Z,41.30
2019-04-28T20:00:57.960Z,42.00
2019-04-28T20:03:24.673Z,41.80
2019-04-28T20:05:52.151Z,42.00
2019-04-28T20:08:18.905Z,41.40
2019-04-28T20:10:45.790Z,41.80
2019-04-28T20:13:12.426Z,42.90
2019-04-28T20:15:39.628Z,42.90
2019-04-28T20:18:08.333Z,42.20
2019-04-28T20:20:34.979Z,42.10
2019-04-28T20:23:03.777Z,41.60
2019-04-28T20:25:30.400Z,41.60
2019-04-28T20:27:57.731Z,41.80
2019-04-28T20:30:24.320Z,41.30
2019-04-28T20:32:50.928Z,41.50
2019-04-28T20:35:17.610Z,41.90
2019-04-28T20:37:44.474Z,42.10
2019-04-28T20:40:11.077Z,41.60
2019-04-28T20:42:38.073Z,41.80
2019-04-28T20:45:04.665Z,42.00
2019-04-28T20:47:32.768Z,42.80
2019-04-28T20:49:59.470Z,41.30
2019-04-28T20:52:26.062Z,43.40
2019-04-28T20:54:52.973Z,42.40
2019-04-28T20:57:20.044Z,42.10
2019-04-28T20:59:46.805Z,41.90
2019-04-28T21:02:13.682Z,42.10
2019-04-28T21:04:40.339Z,41.70
2019-04-28T21:07:07.011Z,41.60
2019-04-28T21:09:33.667Z,41.70
2019-04-28T21:12:00.561Z,41.70
2019-04-28T21:14:27.654Z,42.30
2019-04-28T21:16:54.673Z,41.50
2019-04-28T21:19:21.273Z,42.60
2019-04-28T21:21:48.130Z,42.60
2019-04-28T21:24:16.912Z,41.50
2019-04-28T21:26:43.347Z,41.80
2019-04-28T21:29:09.996Z,41.50
2019-04-28T21:31:36.639Z,41.60
2019-04-28T21:34:03.257Z,42.80
2019-04-28T21:36:30.054Z,42.90
2019-04-28T21:38:56.970Z,43.30
2019-04-28T21:41:23.597Z,41.80
2019-04-28T21:43:50.183Z,42.70
2019-04-28T21:46:17.095Z,42.40
2019-04-28T21:48:44.000Z,42.60
2019-04-28T21:51:12.061Z,42.90
2019-04-28T21:53:40.416Z,43.30
2019-04-28T21:56:07.039Z,43.20
2019-04-28T21:58:33.840Z,43.70
2019-04-28T22:01:00.661Z,42.60
2019-04-28T22:03:27.310Z,43.20
2019-04-28T22:05:54.146Z,43.40
2019-04-28T22:08:20.891Z,43.90
2019-04-28T22:10:47.694Z,44.20
2019-04-28T22:13:14.463Z,44.10
2019-04-28T22:15:41.531Z,43.50
2019-04-28T22:18:08.830Z,43.70
2019-04-28T22:20:35.448Z,43.70
2019-04-28T22:23:02.348Z,44.00
2019-04-28T22:25:29.375Z,44.90
2019-04-28T22:27:57.269Z,44.10
2019-04-28T22:30:24.108Z,43.80
2019-04-28T22:32:51.857Z,44.70
2019-04-28T22:35:18.734Z,44.20
2019-04-28T22:37:45.635Z,45.40
2019-04-28T22:40:16.713Z,45.70
2019-04-28T22:42:44.604Z,44.80
2019-04-28T22:45:11.459Z,44.90
2019-04-28T22:47:40.438Z,45.50
2019-04-28T22:50:07.605Z,44.80
2019-04-28T22:52:36.162Z,45.80
2019-04-28T22:55:03.160Z,46.10
2019-04-28T22:57:31.533Z,46.20
2019-04-28T23:00:00.413Z,46.10
2019-04-28T23:02:29.124Z,46.40
2019-04-28T23:04:55.975Z,46.40
2019-04-28T23:07:24.073Z,46.40
2019-04-28T23:09:52.822Z,46.20
2019-04-28T23:12:19.403Z,45.90
2019-04-28T23:14:48.213Z,46.40
2019-04-28T23:17:18.471Z,46.10
2019-04-28T23:19:45.063Z,46.20
2019-04-28T23:22:14.082Z,46.20
2019-04-28T23:24:43.352Z,46.30
2019-04-28T23:27:10.343Z,45.80
2019-04-28T23:29:37.001Z,46.00
2019-04-28T23:32:07.955Z,45.60
2019-04-28T23:34:35.111Z,46.10
2019-04-28T23:37:02.272Z,46.80
2019-04-28T23:39:31.330Z,45.80
2019-04-28T23:41:57.927Z,46.40
2019-04-28T23:44:26.709Z,45.80
2019-04-28T23:46:56.230Z,46.30
2019-04-28T23:49:25.431Z,46.00
2019-04-28T23:51:52.157Z,46.50
2019-04-28T23:54:22.394Z,46.80
2019-04-28T23:56:51.320Z,46.20
2019-04-28T23:59:20.037Z,47.20
